sensor_id;sensor_type;location;lat;lon;timestamp;P1;durP1;ratioP1;P2;durP2;ratioP2
18265;SDS011;9259;48.194;16.322;2023-02-28T00:01:21;16.50;;;7.77;;
18265;SDS011;9259;48.194;16.322;2023-02-28T00:03:49;17.67;;;7.93;;
18265;SDS011;9259;48.194;16.322;2023-02-28T00:06:18;21.27;;;8.10;;
18265;SDS011;9259;48.194;16.322;2023-02-28T00:08:48;22.90;;;8.53;;
18265;SDS011;9259;48.194;16.322;2023-02-28T00:11:16;20.00;;;7.37;;
18265;SDS011;9259;48.194;16.322;2023-02-28T00:13:45;19.03;;;7.63;;
18265;SDS011;9259;48.194;16.322;2023-02-28T00:16:14;20.33;;;8.00;;
18265;SDS011;9259;48.194;16.322;2023-02-28T00:18:43;18.83;;;7.13;;
18265;SDS011;9259;48.194;16.322;2023-02-28T00:21:13;19.07;;;7.50;;
18265;SDS011;9259;48.194;16.322;2023-02-28T00:23:42;18.77;;;7.40;;
18265;SDS011;9259;48.194;16.322;2023-02-28T00:26:11;21.87;;;7.97;;
18265;SDS011;9259;48.194;16.322;2023-02-28T00:28:40;18.87;;;7.33;;
18265;SDS011;9259;48.194;16.322;2023-02-28T00:31:08;17.67;;;7.30;;
18265;SDS011;9259;48.194;16.322;2023-02-28T00:33:36;18.10;;;7.23;;
18265;SDS011;9259;48.194;16.322;2023-02-28T00:36:04;18.27;;;8.37;;
18265;SDS011;9259;48.194;16.322;2023-02-28T00:38:34;18.90;;;7.47;;
18265;SDS011;9259;48.194;16.322;2023-02-28T00:41:02;20.13;;;8.57;;
18265;SDS011;9259;48.194;16.322;2023-02-28T00:43:33;20.60;;;7.90;;
18265;SDS011;9259;48.194;16.322;2023-02-28T00:46:03;20.40;;;8.47;;
18265;SDS011;9259;48.194;16.322;2023-02-28T00:48:31;20.23;;;7.87;;
18265;SDS011;9259;48.194;16.322;2023-02-28T00:51:00;20.00;;;7.77;;
18265;SDS011;9259;48.194;16.322;2023-02-28T00:53:28;23.47;;;9.60;;
18265;SDS011;9259;48.194;16.322;2023-02-28T00:55:58;20.50;;;8.57;;
18265;SDS011;9259;48.194;16.322;2023-02-28T00:58:26;20.13;;;8.50;;
18265;SDS011;9259;48.194;16.322;2023-02-28T01:00:55;19.97;;;8.13;;
18265;SDS011;9259;48.194;16.322;2023-02-28T01:03:24;19.13;;;7.87;;
18265;SDS011;9259;48.194;16.322;2023-02-28T01:05:52;24.97;;;8.93;;
18265;SDS011;9259;48.194;16.322;2023-02-28T01:08:20;23.63;;;8.47;;
18265;SDS011;9259;48.194;16.322;2023-02-28T01:10:49;21.57;;;8.50;;
18265;SDS011;9259;48.194;16.322;2023-02-28T01:13:17;22.40;;;8.77;;
18265;SDS011;9259;48.194;16.322;2023-02-28T01:15:48;18.10;;;8.50;;
18265;SDS011;9259;48.194;16.322;2023-02-28T01:18:19;20.90;;;8.87;;
18265;SDS011;9259;48.194;16.322;2023-02-28T01:20:47;21.67;;;8.83;;
18265;SDS011;9259;48.194;16.322;2023-02-28T01:23:17;18.10;;;7.30;;
18265;SDS011;9259;48.194;16.322;2023-02-28T01:25:47;19.67;;;8.07;;
18265;SDS011;9259;48.194;16.322;2023-02-28T01:28:15;19.77;;;8.40;;
18265;SDS011;9259;48.194;16.322;2023-02-28T01:30:47;23.37;;;8.93;;
18265;SDS011;9259;48.194;16.322;2023-02-28T01:33:15;23.37;;;8.63;;
18265;SDS011;9259;48.194;16.322;2023-02-28T01:35:45;20.00;;;8.53;;
18265;SDS011;9259;48.194;16.322;2023-02-28T01:38:13;22.07;;;8.00;;
18265;SDS011;9259;48.194;16.322;2023-02-28T01:40:41;20.07;;;8.60;;
18265;SDS011;9259;48.194;16.322;2023-02-28T01:43:10;21.13;;;8.93;;
18265;SDS011;9259;48.194;16.322;2023-02-28T01:45:46;25.63;;;8.50;;
18265;SDS011;9259;48.194;16.322;2023-02-28T01:48:14;20.13;;;8.37;;
18265;SDS011;9259;48.194;16.322;2023-02-28T01:50:44;20.17;;;8.57;;
18265;SDS011;9259;48.194;16.322;2023-02-28T01:53:13;20.23;;;7.73;;
18265;SDS011;9259;48.194;16.322;2023-02-28T01:55:45;20.40;;;8.27;;
18265;SDS011;9259;48.194;16.322;2023-02-28T01:58:14;23.43;;;8.60;;
18265;SDS011;9259;48.194;16.322;2023-02-28T02:00:43;20.93;;;8.43;;
18265;SDS011;9259;48.194;16.322;2023-02-28T02:03:12;26.77;;;8.93;;
18265;SDS011;9259;48.194;16.322;2023-02-28T02:05:46;22.50;;;8.80;;
18265;SDS011;9259;48.194;16.322;2023-02-28T02:08:15;20.93;;;8.97;;
18265;SDS011;9259;48.194;16.322;2023-02-28T02:10:45;19.40;;;8.83;;
18265;SDS011;9259;48.194;16.322;2023-02-28T02:13:21;21.13;;;8.93;;
18265;SDS011;9259;48.194;16.322;2023-02-28T02:16:04;23.07;;;8.37;;
18265;SDS011;9259;48.194;16.322;2023-02-28T02:18:40;21.60;;;8.50;;
18265;SDS011;9259;48.194;16.322;2023-02-28T02:21:18;20.13;;;9.27;;
18265;SDS011;9259;48.194;16.322;2023-02-28T02:24:22;20.50;;;8.90;;
18265;SDS011;9259;48.194;16.322;2023-02-28T02:27:20;21.80;;;8.33;;
18265;SDS011;9259;48.194;16.322;2023-02-28T02:29:57;20.57;;;9.17;;
18265;SDS011;9259;48.194;16.322;2023-02-28T02:35:39;20.60;;;8.77;;
18265;SDS011;9259;48.194;16.322;2023-02-28T02:38:13;23.73;;;8.87;;
18265;SDS011;9259;48.194;16.322;2023-02-28T02:40:47;22.70;;;8.87;;
18265;SDS011;9259;48.194;16.322;2023-02-28T02:43:25;20.20;;;8.53;;
18265;SDS011;9259;48.194;16.322;2023-02-28T02:45:58;20.33;;;8.70;;
18265;SDS011;9259;48.194;16.322;2023-02-28T02:48:31;22.10;;;8.37;;
18265;SDS011;9259;48.194;16.322;2023-02-28T02:51:03;24.60;;;8.60;;
18265;SDS011;9259;48.194;16.322;2023-02-28T02:53:40;21.93;;;9.03;;
18265;SDS011;9259;48.194;16.322;2023-02-28T02:56:11;23.17;;;8.80;;
18265;SDS011;9259;48.194;16.322;2023-02-28T02:58:40;22.33;;;9.03;;
18265;SDS011;9259;48.194;16.322;2023-02-28T03:01:10;20.80;;;8.80;;
18265;SDS011;9259;48.194;16.322;2023-02-28T03:03:41;20.83;;;9.27;;
18265;SDS011;9259;48.194;16.322;2023-02-28T03:06:11;18.33;;;8.63;;
18265;SDS011;9259;48.194;16.322;2023-02-28T03:08:39;20.57;;;8.50;;
18265;SDS011;9259;48.194;16.322;2023-02-28T03:11:11;21.47;;;9.70;;
18265;SDS011;9259;48.194;16.322;2023-02-28T03:13:52;20.90;;;9.10;;
18265;SDS011;9259;48.194;16.322;2023-02-28T03:16:33;23.40;;;9.13;;
18265;SDS011;9259;48.194;16.322;2023-02-28T03:19:08;20.27;;;8.33;;
18265;SDS011;9259;48.194;16.322;2023-02-28T03:21:46;23.17;;;9.50;;
18265;SDS011;9259;48.194;16.322;2023-02-28T03:24:26;22.20;;;9.03;;
18265;SDS011;9259;48.194;16.322;2023-02-28T03:26:58;22.10;;;9.37;;
18265;SDS011;9259;48.194;16.322;2023-02-28T03:29:37;22.03;;;9.23;;
18265;SDS011;9259;48.194;16.322;2023-02-28T03:32:11;25.67;;;9.47;;
18265;SDS011;9259;48.194;16.322;2023-02-28T03:34:48;22.83;;;9.27;;
18265;SDS011;9259;48.194;16.322;2023-02-28T03:37:22;24.10;;;9.23;;
18265;SDS011;9259;48.194;16.322;2023-02-28T03:39:53;25.80;;;10.20;;
18265;SDS011;9259;48.194;16.322;2023-02-28T03:42:24;23.23;;;9.73;;
18265;SDS011;9259;48.194;16.322;2023-02-28T03:44:54;24.20;;;9.60;;
18265;SDS011;9259;48.194;16.322;2023-02-28T03:47:25;25.00;;;9.73;;
18265;SDS011;9259;48.194;16.322;2023-02-28T03:49:57;25.27;;;9.57;;
18265;SDS011;9259;48.194;16.322;2023-02-28T03:52:28;24.17;;;9.77;;
18265;SDS011;9259;48.194;16.322;2023-02-28T03:55:00;24.53;;;9.43;;
18265;SDS011;9259;48.194;16.322;2023-02-28T03:57:33;21.00;;;9.27;;
18265;SDS011;9259;48.194;16.322;2023-02-28T04:00:04;19.97;;;8.83;;
18265;SDS011;9259;48.194;16.322;2023-02-28T04:02:42;18.90;;;9.00;;
18265;SDS011;9259;48.194;16.322;2023-02-28T04:05:10;23.47;;;8.93;;
18265;SDS011;9259;48.194;16.322;2023-02-28T04:07:40;23.23;;;10.60;;
18265;SDS011;9259;48.194;16.322;2023-02-28T04:10:08;39.93;;;15.13;;
18265;SDS011;9259;48.194;16.322;2023-02-28T04:12:37;54.70;;;19.73;;
18265;SDS011;9259;48.194;16.322;2023-02-28T04:15:06;44.30;;;17.80;;
18265;SDS011;9259;48.194;16.322;2023-02-28T04:17:36;32.50;;;12.97;;
18265;SDS011;9259;48.194;16.322;2023-02-28T04:20:04;26.57;;;11.60;;
18265;SDS011;9259;48.194;16.322;2023-02-28T04:22:35;27.73;;;11.70;;
18265;SDS011;9259;48.194;16.322;2023-02-28T04:25:05;22.30;;;9.97;;
18265;SDS011;9259;48.194;16.322;2023-02-28T04:27:34;38.53;;;15.83;;
18265;SDS011;9259;48.194;16.322;2023-02-28T04:30:02;23.73;;;10.50;;
18265;SDS011;9259;48.194;16.322;2023-02-28T04:32:31;20.87;;;9.40;;
18265;SDS011;9259;48.194;16.322;2023-02-28T04:34:59;24.17;;;9.60;;
18265;SDS011;9259;48.194;16.322;2023-02-28T04:37:28;26.07;;;9.23;;
18265;SDS011;9259;48.194;16.322;2023-02-28T04:40:00;22.87;;;10.63;;
18265;SDS011;9259;48.194;16.322;2023-02-28T04:42:30;27.83;;;10.67;;
18265;SDS011;9259;48.194;16.322;2023-02-28T04:45:01;31.00;;;12.70;;
18265;SDS011;9259;48.194;16.322;2023-02-28T04:47:30;30.47;;;11.53;;
18265;SDS011;9259;48.194;16.322;2023-02-28T04:49:58;33.17;;;12.93;;
18265;SDS011;9259;48.194;16.322;2023-02-28T04:52:26;30.30;;;12.63;;
18265;SDS011;9259;48.194;16.322;2023-02-28T04:54:55;22.97;;;10.97;;
18265;SDS011;9259;48.194;16.322;2023-02-28T04:57:23;27.10;;;10.77;;
18265;SDS011;9259;48.194;16.322;2023-02-28T04:59:52;28.03;;;10.87;;
18265;SDS011;9259;48.194;16.322;2023-02-28T05:02:20;27.17;;;10.37;;
18265;SDS011;9259;48.194;16.322;2023-02-28T05:04:49;24.50;;;10.37;;
18265;SDS011;9259;48.194;16.322;2023-02-28T05:07:17;23.97;;;10.40;;
18265;SDS011;9259;48.194;16.322;2023-02-28T05:09:45;26.77;;;10.47;;
18265;SDS011;9259;48.194;16.322;2023-02-28T05:12:13;22.30;;;9.20;;
18265;SDS011;9259;48.194;16.322;2023-02-28T05:14:41;22.80;;;9.70;;
18265;SDS011;9259;48.194;16.322;2023-02-28T05:17:11;23.40;;;10.03;;
18265;SDS011;9259;48.194;16.322;2023-02-28T05:19:39;25.80;;;10.33;;
18265;SDS011;9259;48.194;16.322;2023-02-28T05:22:11;26.33;;;9.87;;
18265;SDS011;9259;48.194;16.322;2023-02-28T05:24:41;23.73;;;10.00;;
18265;SDS011;9259;48.194;16.322;2023-02-28T05:27:09;25.40;;;10.07;;
18265;SDS011;9259;48.194;16.322;2023-02-28T05:29:37;26.33;;;10.10;;
18265;SDS011;9259;48.194;16.322;2023-02-28T05:32:11;27.70;;;10.50;;
18265;SDS011;9259;48.194;16.322;2023-02-28T05:34:40;20.90;;;9.80;;
18265;SDS011;9259;48.194;16.322;2023-02-28T05:37:11;25.67;;;9.70;;
18265;SDS011;9259;48.194;16.322;2023-02-28T05:39:39;22.70;;;9.83;;
18265;SDS011;9259;48.194;16.322;2023-02-28T05:42:08;25.03;;;9.97;;
18265;SDS011;9259;48.194;16.322;2023-02-28T05:44:36;24.00;;;10.20;;
18265;SDS011;9259;48.194;16.322;2023-02-28T05:47:04;25.83;;;10.13;;
18265;SDS011;9259;48.194;16.322;2023-02-28T05:49:33;25.00;;;10.03;;
18265;SDS011;9259;48.194;16.322;2023-02-28T05:52:01;21.93;;;9.13;;
18265;SDS011;9259;48.194;16.322;2023-02-28T05:54:30;27.40;;;11.20;;
18265;SDS011;9259;48.194;16.322;2023-02-28T05:56:58;25.57;;;9.90;;
18265;SDS011;9259;48.194;16.322;2023-02-28T05:59:26;26.50;;;10.00;;
18265;SDS011;9259;48.194;16.322;2023-02-28T06:01:54;24.40;;;10.13;;
18265;SDS011;9259;48.194;16.322;2023-02-28T06:04:22;22.43;;;9.63;;
18265;SDS011;9259;48.194;16.322;2023-02-28T06:06:52;29.57;;;11.03;;
18265;SDS011;9259;48.194;16.322;2023-02-28T06:09:20;21.43;;;8.47;;
18265;SDS011;9259;48.194;16.322;2023-02-28T06:11:48;23.87;;;10.20;;
18265;SDS011;9259;48.194;16.322;2023-02-28T06:14:17;26.10;;;10.10;;
18265;SDS011;9259;48.194;16.322;2023-02-28T06:16:46;30.53;;;9.87;;
18265;SDS011;9259;48.194;16.322;2023-02-28T06:19:14;25.10;;;10.30;;
18265;SDS011;9259;48.194;16.322;2023-02-28T06:21:43;29.27;;;11.10;;
18265;SDS011;9259;48.194;16.322;2023-02-28T06:24:12;25.27;;;11.07;;
18265;SDS011;9259;48.194;16.322;2023-02-28T06:26:40;28.80;;;10.93;;
18265;SDS011;9259;48.194;16.322;2023-02-28T06:29:08;22.93;;;9.60;;
18265;SDS011;9259;48.194;16.322;2023-02-28T06:31:37;27.47;;;11.00;;
18265;SDS011;9259;48.194;16.322;2023-02-28T06:34:05;28.90;;;11.40;;
18265;SDS011;9259;48.194;16.322;2023-02-28T06:36:33;29.80;;;10.90;;
18265;SDS011;9259;48.194;16.322;2023-02-28T06:39:01;29.13;;;14.43;;
18265;SDS011;9259;48.194;16.322;2023-02-28T06:41:31;24.53;;;11.60;;
18265;SDS011;9259;48.194;16.322;2023-02-28T06:44:04;30.30;;;11.83;;
18265;SDS011;9259;48.194;16.322;2023-02-28T06:46:32;26.23;;;11.03;;
18265;SDS011;9259;48.194;16.322;2023-02-28T06:49:00;26.07;;;10.90;;
18265;SDS011;9259;48.194;16.322;2023-02-28T06:51:29;30.97;;;11.03;;
18265;SDS011;9259;48.194;16.322;2023-02-28T06:53:57;24.70;;;10.27;;
18265;SDS011;9259;48.194;16.322;2023-02-28T06:56:25;24.33;;;11.50;;
18265;SDS011;9259;48.194;16.322;2023-02-28T06:58:55;28.10;;;11.10;;
18265;SDS011;9259;48.194;16.322;2023-02-28T07:01:23;22.50;;;9.70;;
18265;SDS011;9259;48.194;16.322;2023-02-28T07:03:51;27.10;;;12.10;;
18265;SDS011;9259;48.194;16.322;2023-02-28T07:06:19;32.23;;;12.37;;
18265;SDS011;9259;48.194;16.322;2023-02-28T07:08:49;28.90;;;12.00;;
18265;SDS011;9259;48.194;16.322;2023-02-28T07:11:18;30.63;;;12.57;;
18265;SDS011;9259;48.194;16.322;2023-02-28T07:13:48;29.93;;;11.10;;
18265;SDS011;9259;48.194;16.322;2023-02-28T07:16:18;29.13;;;11.40;;
18265;SDS011;9259;48.194;16.322;2023-02-28T07:18:46;32.20;;;13.27;;
18265;SDS011;9259;48.194;16.322;2023-02-28T07:21:14;30.30;;;12.43;;
18265;SDS011;9259;48.194;16.322;2023-02-28T07:23:43;28.90;;;13.33;;
18265;SDS011;9259;48.194;16.322;2023-02-28T07:26:11;29.60;;;13.93;;
18265;SDS011;9259;48.194;16.322;2023-02-28T07:28:41;35.07;;;13.00;;
18265;SDS011;9259;48.194;16.322;2023-02-28T07:31:09;29.90;;;12.63;;
18265;SDS011;9259;48.194;16.322;2023-02-28T07:33:40;28.13;;;13.00;;
18265;SDS011;9259;48.194;16.322;2023-02-28T07:36:09;28.57;;;12.70;;
18265;SDS011;9259;48.194;16.322;2023-02-28T07:38:41;32.53;;;13.30;;
18265;SDS011;9259;48.194;16.322;2023-02-28T07:41:09;31.73;;;12.77;;
18265;SDS011;9259;48.194;16.322;2023-02-28T07:43:38;31.17;;;13.23;;
18265;SDS011;9259;48.194;16.322;2023-02-28T07:46:07;29.43;;;12.77;;
18265;SDS011;9259;48.194;16.322;2023-02-28T07:48:37;29.43;;;12.90;;
18265;SDS011;9259;48.194;16.322;2023-02-28T07:51:06;28.63;;;12.07;;
18265;SDS011;9259;48.194;16.322;2023-02-28T07:53:34;34.17;;;12.60;;
18265;SDS011;9259;48.194;16.322;2023-02-28T07:56:03;29.07;;;12.30;;
18265;SDS011;9259;48.194;16.322;2023-02-28T07:58:31;30.67;;;13.23;;
18265;SDS011;9259;48.194;16.322;2023-02-28T08:01:04;31.17;;;13.07;;
18265;SDS011;9259;48.194;16.322;2023-02-28T08:03:33;31.70;;;12.10;;
18265;SDS011;9259;48.194;16.322;2023-02-28T08:06:02;35.20;;;13.33;;
18265;SDS011;9259;48.194;16.322;2023-02-28T08:08:33;40.57;;;13.83;;
18265;SDS011;9259;48.194;16.322;2023-02-28T08:11:02;25.43;;;12.33;;
18265;SDS011;9259;48.194;16.322;2023-02-28T08:13:30;28.00;;;12.13;;
18265;SDS011;9259;48.194;16.322;2023-02-28T08:16:00;30.10;;;13.33;;
18265;SDS011;9259;48.194;16.322;2023-02-28T08:18:29;25.50;;;12.30;;
18265;SDS011;9259;48.194;16.322;2023-02-28T08:20:57;29.03;;;12.60;;
18265;SDS011;9259;48.194;16.322;2023-02-28T08:23:25;26.63;;;12.07;;
18265;SDS011;9259;48.194;16.322;2023-02-28T08:25:55;35.20;;;12.80;;
18265;SDS011;9259;48.194;16.322;2023-02-28T08:28:24;31.53;;;12.67;;
18265;SDS011;9259;48.194;16.322;2023-02-28T08:30:52;25.93;;;12.33;;
18265;SDS011;9259;48.194;16.322;2023-02-28T08:33:20;29.40;;;12.57;;
18265;SDS011;9259;48.194;16.322;2023-02-28T08:35:51;25.23;;;10.97;;
18265;SDS011;9259;48.194;16.322;2023-02-28T08:38:21;28.27;;;12.07;;
18265;SDS011;9259;48.194;16.322;2023-02-28T08:40:49;24.93;;;12.33;;
18265;SDS011;9259;48.194;16.322;2023-02-28T08:43:25;29.10;;;12.60;;
18265;SDS011;9259;48.194;16.322;2023-02-28T08:45:54;25.20;;;11.33;;
18265;SDS011;9259;48.194;16.322;2023-02-28T08:48:23;24.97;;;11.57;;
18265;SDS011;9259;48.194;16.322;2023-02-28T08:50:55;31.60;;;13.07;;
18265;SDS011;9259;48.194;16.322;2023-02-28T08:53:23;22.13;;;11.03;;
18265;SDS011;9259;48.194;16.322;2023-02-28T08:55:56;23.13;;;12.03;;
18265;SDS011;9259;48.194;16.322;2023-02-28T08:58:26;24.57;;;11.87;;
18265;SDS011;9259;48.194;16.322;2023-02-28T09:00:54;24.13;;;11.53;;
18265;SDS011;9259;48.194;16.322;2023-02-28T09:03:22;24.20;;;11.73;;
18265;SDS011;9259;48.194;16.322;2023-02-28T09:05:53;23.90;;;11.40;;
18265;SDS011;9259;48.194;16.322;2023-02-28T09:08:22;21.57;;;9.77;;
18265;SDS011;9259;48.194;16.322;2023-02-28T09:10:51;22.57;;;10.53;;
18265;SDS011;9259;48.194;16.322;2023-02-28T09:13:20;25.73;;;9.97;;
18265;SDS011;9259;48.194;16.322;2023-02-28T09:15:49;21.70;;;9.80;;
18265;SDS011;9259;48.194;16.322;2023-02-28T09:18:17;23.47;;;10.50;;
18265;SDS011;9259;48.194;16.322;2023-02-28T09:20:45;22.47;;;10.87;;
18265;SDS011;9259;48.194;16.322;2023-02-28T09:23:14;19.03;;;9.03;;
18265;SDS011;9259;48.194;16.322;2023-02-28T09:25:44;25.40;;;9.63;;
18265;SDS011;9259;48.194;16.322;2023-02-28T09:28:15;20.20;;;10.17;;
18265;SDS011;9259;48.194;16.322;2023-02-28T09:30:44;21.53;;;10.47;;
18265;SDS011;9259;48.194;16.322;2023-02-28T09:33:15;20.63;;;10.33;;
18265;SDS011;9259;48.194;16.322;2023-02-28T09:35:46;19.80;;;10.83;;
18265;SDS011;9259;48.194;16.322;2023-02-28T09:38:14;20.07;;;10.10;;
18265;SDS011;9259;48.194;16.322;2023-02-28T09:40:45;21.17;;;10.93;;
18265;SDS011;9259;48.194;16.322;2023-02-28T09:43:16;19.43;;;8.23;;
18265;SDS011;9259;48.194;16.322;2023-02-28T09:45:47;20.87;;;10.97;;
18265;SDS011;9259;48.194;16.322;2023-02-28T09:48:20;20.83;;;10.47;;
18265;SDS011;9259;48.194;16.322;2023-02-28T09:50:51;23.50;;;10.90;;
18265;SDS011;9259;48.194;16.322;2023-02-28T09:53:25;22.20;;;11.00;;
18265;SDS011;9259;48.194;16.322;2023-02-28T09:56:01;23.53;;;10.50;;
18265;SDS011;9259;48.194;16.322;2023-02-28T09:58:32;21.93;;;10.83;;
18265;SDS011;9259;48.194;16.322;2023-02-28T10:01:06;22.13;;;10.70;;
18265;SDS011;9259;48.194;16.322;2023-02-28T10:03:40;19.00;;;9.50;;
18265;SDS011;9259;48.194;16.322;2023-02-28T10:06:12;21.90;;;9.53;;
18265;SDS011;9259;48.194;16.322;2023-02-28T10:08:45;26.13;;;12.00;;
18265;SDS011;9259;48.194;16.322;2023-02-28T10:11:19;25.93;;;11.50;;
18265;SDS011;9259;48.194;16.322;2023-02-28T10:13:50;25.07;;;11.03;;
18265;SDS011;9259;48.194;16.322;2023-02-28T10:16:23;24.30;;;11.57;;
18265;SDS011;9259;48.194;16.322;2023-02-28T10:18:56;22.33;;;11.47;;
18265;SDS011;9259;48.194;16.322;2023-02-28T10:21:28;24.70;;;11.30;;
18265;SDS011;9259;48.194;16.322;2023-02-28T10:24:01;23.47;;;12.03;;
18265;SDS011;9259;48.194;16.322;2023-02-28T10:26:32;22.50;;;10.33;;
18265;SDS011;9259;48.194;16.322;2023-02-28T10:29:00;21.10;;;11.40;;
18265;SDS011;9259;48.194;16.322;2023-02-28T10:31:28;24.87;;;10.70;;
18265;SDS011;9259;48.194;16.322;2023-02-28T10:33:58;21.70;;;10.50;;
18265;SDS011;9259;48.194;16.322;2023-02-28T10:36:27;22.87;;;11.63;;
18265;SDS011;9259;48.194;16.322;2023-02-28T10:38:55;24.10;;;11.53;;
18265;SDS011;9259;48.194;16.322;2023-02-28T10:41:27;21.87;;;10.87;;
18265;SDS011;9259;48.194;16.322;2023-02-28T10:46:49;22.63;;;10.83;;
18265;SDS011;9259;48.194;16.322;2023-02-28T10:49:21;25.43;;;11.37;;
18265;SDS011;9259;48.194;16.322;2023-02-28T10:51:51;24.33;;;10.87;;
18265;SDS011;9259;48.194;16.322;2023-02-28T10:54:23;25.13;;;10.53;;
18265;SDS011;9259;48.194;16.322;2023-02-28T10:57:05;22.97;;;11.40;;
18265;SDS011;9259;48.194;16.322;2023-02-28T10:59:35;21.27;;;10.83;;
18265;SDS011;9259;48.194;16.322;2023-02-28T11:02:10;27.53;;;11.03;;
18265;SDS011;9259;48.194;16.322;2023-02-28T11:04:59;24.13;;;11.30;;
18265;SDS011;9259;48.194;16.322;2023-02-28T11:07:27;21.80;;;11.10;;
18265;SDS011;9259;48.194;16.322;2023-02-28T11:09:56;23.50;;;10.77;;
18265;SDS011;9259;48.194;16.322;2023-02-28T11:12:26;23.17;;;11.17;;
18265;SDS011;9259;48.194;16.322;2023-02-28T11:14:55;15.40;;;9.17;;
18265;SDS011;9259;48.194;16.322;2023-02-28T11:17:25;22.13;;;11.57;;
18265;SDS011;9259;48.194;16.322;2023-02-28T11:19:56;26.07;;;11.83;;
18265;SDS011;9259;48.194;16.322;2023-02-28T11:22:29;24.37;;;11.83;;
18265;SDS011;9259;48.194;16.322;2023-02-28T11:25:02;21.13;;;11.27;;
18265;SDS011;9259;48.194;16.322;2023-02-28T11:27:40;22.27;;;11.43;;
18265;SDS011;9259;48.194;16.322;2023-02-28T11:30:27;18.27;;;9.90;;
18265;SDS011;9259;48.194;16.322;2023-02-28T11:32:57;25.13;;;11.20;;
18265;SDS011;9259;48.194;16.322;2023-02-28T11:35:28;21.50;;;11.17;;
18265;SDS011;9259;48.194;16.322;2023-02-28T11:38:00;18.47;;;10.53;;
18265;SDS011;9259;48.194;16.322;2023-02-28T11:40:30;21.43;;;11.00;;
18265;SDS011;9259;48.194;16.322;2023-02-28T11:43:17;23.10;;;10.90;;
18265;SDS011;9259;48.194;16.322;2023-02-28T11:45:55;18.97;;;10.07;;
18265;SDS011;9259;48.194;16.322;2023-02-28T11:48:31;22.60;;;11.23;;
18265;SDS011;9259;48.194;16.322;2023-02-28T11:51:05;21.80;;;10.53;;
18265;SDS011;9259;48.194;16.322;2023-02-28T11:53:47;23.50;;;10.33;;
18265;SDS011;9259;48.194;16.322;2023-02-28T11:56:21;26.80;;;11.83;;
18265;SDS011;9259;48.194;16.322;2023-02-28T11:58:55;19.73;;;9.90;;
18265;SDS011;9259;48.194;16.322;2023-02-28T12:01:33;22.03;;;11.13;;
18265;SDS011;9259;48.194;16.322;2023-02-28T12:04:17;18.53;;;10.90;;
18265;SDS011;9259;48.194;16.322;2023-02-28T12:06:54;20.30;;;11.67;;
18265;SDS011;9259;48.194;16.322;2023-02-28T12:09:30;24.10;;;11.87;;
18265;SDS011;9259;48.194;16.322;2023-02-28T12:12:08;20.03;;;10.30;;
18265;SDS011;9259;48.194;16.322;2023-02-28T12:14:53;20.03;;;10.30;;
18265;SDS011;9259;48.194;16.322;2023-02-28T12:17:44;24.87;;;11.60;;
18265;SDS011;9259;48.194;16.322;2023-02-28T12:20:22;22.70;;;11.20;;
18265;SDS011;9259;48.194;16.322;2023-02-28T12:22:57;23.43;;;11.13;;
18265;SDS011;9259;48.194;16.322;2023-02-28T12:25:54;20.00;;;10.07;;
18265;SDS011;9259;48.194;16.322;2023-02-28T12:28:36;19.83;;;10.27;;
18265;SDS011;9259;48.194;16.322;2023-02-28T12:31:10;21.13;;;10.37;;
18265;SDS011;9259;48.194;16.322;2023-02-28T12:33:48;22.43;;;11.00;;
18265;SDS011;9259;48.194;16.322;2023-02-28T12:36:20;21.63;;;11.17;;
18265;SDS011;9259;48.194;16.322;2023-02-28T12:38:52;19.47;;;10.80;;
18265;SDS011;9259;48.194;16.322;2023-02-28T12:41:27;22.40;;;9.87;;
18265;SDS011;9259;48.194;16.322;2023-02-28T12:44:02;21.40;;;10.63;;
18265;SDS011;9259;48.194;16.322;2023-02-28T12:46:38;22.77;;;9.83;;
18265;SDS011;9259;48.194;16.322;2023-02-28T12:49:10;18.97;;;9.60;;
18265;SDS011;9259;48.194;16.322;2023-02-28T12:51:43;17.00;;;9.27;;
18265;SDS011;9259;48.194;16.322;2023-02-28T12:54:16;14.53;;;9.03;;
18265;SDS011;9259;48.194;16.322;2023-02-28T12:56:53;19.23;;;9.67;;
18265;SDS011;9259;48.194;16.322;2023-02-28T12:59:31;16.83;;;8.77;;
18265;SDS011;9259;48.194;16.322;2023-02-28T13:05:29;15.70;;;8.50;;
18265;SDS011;9259;48.194;16.322;2023-02-28T13:11:38;15.87;;;9.30;;
18265;SDS011;9259;48.194;16.322;2023-02-28T13:16:58;17.67;;;8.40;;
18265;SDS011;9259;48.194;16.322;2023-02-28T13:19:30;15.03;;;8.30;;
18265;SDS011;9259;48.194;16.322;2023-02-28T13:22:01;17.77;;;8.47;;
18265;SDS011;9259;48.194;16.322;2023-02-28T13:24:37;20.07;;;8.97;;
18265;SDS011;9259;48.194;16.322;2023-02-28T13:33:29;15.20;;;7.60;;
18265;SDS011;9259;48.194;16.322;2023-02-28T13:36:09;18.77;;;8.23;;
18265;SDS011;9259;48.194;16.322;2023-02-28T13:38:54;16.17;;;7.87;;
18265;SDS011;9259;48.194;16.322;2023-02-28T13:44:17;15.80;;;7.60;;
18265;SDS011;9259;48.194;16.322;2023-02-28T13:49:51;14.10;;;7.57;;
18265;SDS011;9259;48.194;16.322;2023-02-28T13:52:21;22.87;;;7.57;;
18265;SDS011;9259;48.194;16.322;2023-02-28T13:54:56;16.83;;;7.53;;
18265;SDS011;9259;48.194;16.322;2023-02-28T13:57:44;16.07;;;7.33;;
18265;SDS011;9259;48.194;16.322;2023-02-28T14:00:31;15.47;;;7.70;;
18265;SDS011;9259;48.194;16.322;2023-02-28T14:06:13;14.87;;;7.67;;
18265;SDS011;9259;48.194;16.322;2023-02-28T14:08:52;15.13;;;8.40;;
18265;SDS011;9259;48.194;16.322;2023-02-28T14:11:29;12.80;;;6.50;;
18265;SDS011;9259;48.194;16.322;2023-02-28T14:14:01;13.27;;;7.70;;
18265;SDS011;9259;48.194;16.322;2023-02-28T14:16:36;17.87;;;8.00;;
18265;SDS011;9259;48.194;16.322;2023-02-28T14:19:10;15.70;;;7.83;;
18265;SDS011;9259;48.194;16.322;2023-02-28T14:21:45;13.93;;;7.53;;
18265;SDS011;9259;48.194;16.322;2023-02-28T14:24:30;15.57;;;8.07;;
18265;SDS011;9259;48.194;16.322;2023-02-28T14:27:21;15.13;;;8.07;;
18265;SDS011;9259;48.194;16.322;2023-02-28T14:33:16;19.20;;;9.40;;
18265;SDS011;9259;48.194;16.322;2023-02-28T14:38:45;17.10;;;8.67;;
18265;SDS011;9259;48.194;16.322;2023-02-28T14:41:22;20.47;;;9.20;;
18265;SDS011;9259;48.194;16.322;2023-02-28T14:43:54;19.60;;;9.07;;
18265;SDS011;9259;48.194;16.322;2023-02-28T14:46:25;23.27;;;9.70;;
18265;SDS011;9259;48.194;16.322;2023-02-28T14:48:56;13.77;;;7.70;;
18265;SDS011;9259;48.194;16.322;2023-02-28T14:51:25;18.50;;;9.57;;
18265;SDS011;9259;48.194;16.322;2023-02-28T14:53:56;15.97;;;8.53;;
18265;SDS011;9259;48.194;16.322;2023-02-28T14:56:26;17.17;;;8.63;;
18265;SDS011;9259;48.194;16.322;2023-02-28T14:58:57;17.50;;;8.33;;
18265;SDS011;9259;48.194;16.322;2023-02-28T15:01:25;17.40;;;9.33;;
18265;SDS011;9259;48.194;16.322;2023-02-28T15:04:00;15.57;;;8.70;;
18265;SDS011;9259;48.194;16.322;2023-02-28T15:06:31;15.20;;;8.37;;
18265;SDS011;9259;48.194;16.322;2023-02-28T15:09:14;16.07;;;7.67;;
18265;SDS011;9259;48.194;16.322;2023-02-28T15:11:45;16.43;;;8.47;;
18265;SDS011;9259;48.194;16.322;2023-02-28T15:14:16;16.67;;;8.80;;
18265;SDS011;9259;48.194;16.322;2023-02-28T15:16:47;15.73;;;8.73;;
18265;SDS011;9259;48.194;16.322;2023-02-28T15:19:21;22.50;;;9.50;;
18265;SDS011;9259;48.194;16.322;2023-02-28T15:21:51;20.97;;;10.03;;
18265;SDS011;9259;48.194;16.322;2023-02-28T15:24:21;20.93;;;9.70;;
18265;SDS011;9259;48.194;16.322;2023-02-28T15:26:56;18.10;;;9.37;;
18265;SDS011;9259;48.194;16.322;2023-02-28T15:29:26;23.80;;;9.73;;
18265;SDS011;9259;48.194;16.322;2023-02-28T15:31:57;16.53;;;9.10;;